Time;durP1;ratioP1;P1;durP2;ratioP2;P2;SDS_P1;SDS_P2;PMS_P1;PMS_P2;Temp;Humidity;BMP_temperature;BMP_pressure;BME280_temperature;BME280_humidity;BME280_pressure;Samples;Min_cycle;Max_cycle;Signal;HPM_P1;HPM_P2
2021/05/04 04:13:35;;;;;;;2.50;1.30;;;4.70;99.30;;;;;;5040587;28;20062;-73
2021/05/04 04:16:01;;;;;;;2.03;0.85;;;4.70;98.60;;;;;;5050550;28;20479;-73
2021/05/04 04:18:27;;;;;;;1.63;1.02;;;4.90;97.60;;;;;;5050388;28;20083;-74
2021/05/04 04:20:53;;;;;;;3.28;1.00;;;5.10;95.90;;;;;;5049761;28;20668;-74
2021/05/04 04:23:19;;;;;;;1.30;0.90;;;5.40;93.30;;;;;;5050081;28;20025;-74
2021/05/04 04:25:44;;;;;;;1.00;0.77;;;5.60;91.50;;;;;;5057024;28;20048;-74
2021/05/04 04:28:10;;;;;;;1.25;0.90;;;5.90;90.80;;;;;;5042758;28;20029;-74
2021/05/04 04:30:36;;;;;;;2.22;1.00;;;6.10;89.20;;;;;;5054505;28;20025;-74
2021/05/04 04:33:03;;;;;;;3.13;1.00;;;6.20;86.90;;;;;;5051596;28;20466;-73
2021/05/04 04:35:29;;;;;;;1.73;0.90;;;6.30;86.30;;;;;;5053400;28;20028;-73
2021/05/04 04:37:55;;;;;;;2.55;1.08;;;6.40;85.10;;;;;;5046063;28;20337;-73
2021/05/04 04:40:21;;;;;;;6.47;1.00;;;6.50;82.60;;;;;;5042774;28;20021;-73
2021/05/04 04:42:46;;;;;;;1.70;1.00;;;6.50;81.30;;;;;;5047278;28;20036;-73
2021/05/04 04:45:12;;;;;;;5.05;1.00;;;6.80;81.20;;;;;;5046556;28;20602;-73
2021/05/04 04:47:38;;;;;;;4.00;0.90;;;7.20;80.00;;;;;;5038029;28;20026;-73
2021/05/04 04:50:05;;;;;;;4.55;1.17;;;7.40;78.60;;;;;;5042109;28;20031;-77
2021/05/04 04:52:30;;;;;;;4.03;0.90;;;7.70;76.20;;;;;;5031106;28;20398;-74
2021/05/04 04:54:56;;;;;;;1.02;0.75;;;7.90;74.30;;;;;;5049898;28;20121;-73
2021/05/04 04:57:22;;;;;;;1.63;0.70;;;8.00;72.80;;;;;;5050859;28;20112;-74
2021/05/04 04:59:49;;;;;;;7.60;0.93;;;8.30;74.70;;;;;;5050559;28;20036;-71
2021/05/04 05:02:16;;;;;;;3.47;0.95;;;8.50;71.60;;;;;;5037218;28;20053;-72
2021/05/04 05:04:43;;;;;;;2.88;0.70;;;8.80;70.80;;;;;;5053740;28;20534;-72
2021/05/04 05:07:09;;;;;;;1.05;0.70;;;9.00;68.70;;;;;;5055200;28;20103;-71
2021/05/04 05:09:36;;;;;;;1.55;0.90;;;9.00;67.50;;;;;;5041678;28;20545;-70
2021/05/04 05:12:04;;;;;;;6.40;1.02;;;9.30;67.40;;;;;;5052751;28;20033;-71
2021/05/04 05:14:30;;;;;;;1.10;1.00;;;9.50;66.40;;;;;;5054004;28;20045;-71
2021/05/04 05:16:56;;;;;;;1.35;0.80;;;9.50;64.90;;;;;;5054208;28;20046;-70
2021/05/04 05:19:22;;;;;;;2.38;0.70;;;9.40;64.80;;;;;;5054415;28;20480;-71
2021/05/04 05:21:47;;;;;;;3.40;0.80;;;9.40;65.20;;;;;;5047841;28;20485;-71
2021/05/04 05:24:13;;;;;;;1.33;0.73;;;9.20;65.30;;;;;;5042598;28;20017;-71
2021/05/04 05:26:40;;;;;;;1.17;0.70;;;9.00;65.70;;;;;;5040497;28;20478;-71
2021/05/04 05:29:06;;;;;;;1.45;0.77;;;9.00;65.70;;;;;;5042703;28;20025;-71
2021/05/04 05:31:34;;;;;;;1.80;0.80;;;9.10;65.90;;;;;;5034568;28;20033;-71
2021/05/04 05:34:00;;;;;;;2.75;0.80;;;9.20;65.40;;;;;;5034245;28;20029;-71
2021/05/04 05:36:26;;;;;;;2.60;1.00;;;9.40;65.10;;;;;;5041338;28;20025;-71
2021/05/04 05:38:52;;;;;;;2.17;0.68;;;9.80;65.70;;;;;;5037730;28;20045;-71
2021/05/04 05:41:18;;;;;;;1.10;0.70;;;10.20;64.00;;;;;;5048236;28;20021;-71
2021/05/04 05:43:43;;;;;;;2.63;1.00;;;10.20;61.60;;;;;;5054116;28;20076;-71
2021/05/04 05:46:09;;;;;;;1.80;0.80;;;10.30;61.70;;;;;;5049374;28;20492;-76
2021/05/04 05:48:35;;;;;;;2.33;1.00;;;10.00;62.00;;;;;;5042109;28;20035;-68
2021/05/04 05:51:01;;;;;;;1.95;0.70;;;10.20;62.60;;;;;;5053648;28;20054;-73
2021/05/04 05:53:27;;;;;;;1.77;0.73;;;10.40;62.00;;;;;;5053643;28;20533;-73
2021/05/04 05:55:52;;;;;;;1.40;0.60;;;10.50;61.60;;;;;;5053824;28;20384;-73
2021/05/04 05:58:18;;;;;;;1.00;0.80;;;10.50;60.80;;;;;;5053569;28;20035;-77
2021/05/04 06:00:44;;;;;;;6.70;1.05;;;10.50;61.30;;;;;;5052545;28;20017;-79
2021/05/04 07:02:53;;;;;;;2.83;1.10;;;10.30;57.50;;;;;;5088501;27;20968;-69
2021/05/04 07:05:19;;;;;;;2.05;0.90;;;10.40;58.70;;;;;;5088956;28;20024;-69
2021/05/04 07:07:45;;;;;;;12.30;1.52;;;10.10;59.60;;;;;;5088077;28;20099;-69
2021/05/04 07:10:12;;;;;;;9.80;1.50;;;9.90;60.40;;;;;;5087781;28;20543;-69
2021/05/04 07:12:38;;;;;;;4.82;1.02;;;9.90;61.20;;;;;;5088220;28;20078;-70
2021/05/04 07:15:04;;;;;;;3.05;0.93;;;10.10;60.50;;;;;;5088612;28;20107;-68
2021/05/04 07:17:30;;;;;;;6.63;1.17;;;9.90;60.40;;;;;;5088703;28;20067;-71
2021/05/04 07:19:56;;;;;;;2.33;1.00;;;9.90;60.80;;;;;;5088745;28;20021;-68
2021/05/04 07:22:25;;;;;;;1.45;0.90;;;9.80;61.00;;;;;;5088515;28;20056;-70
2021/05/04 07:24:52;;;;;;;22.35;3.10;;;9.80;60.60;;;;;;5088638;28;20036;-70
2021/05/04 07:27:18;;;;;;;1.58;1.10;;;9.70;60.70;;;;;;5088875;28;20027;-69
2021/05/04 07:29:43;;;;;;;1.48;0.80;;;9.60;60.30;;;;;;5088545;28;20029;-67
2021/05/04 07:32:10;;;;;;;4.60;1.20;;;9.40;61.20;;;;;;5087241;28;20077;-67
2021/05/04 07:34:36;;;;;;;3.45;0.90;;;9.40;62.50;;;;;;5088798;28;20097;-66
2021/05/04 07:37:03;;;;;;;14.35;1.52;;;9.30;62.50;;;;;;5086548;28;20569;-66
2021/05/04 07:39:28;;;;;;;17.95;1.70;;;9.30;63.20;;;;;;5088007;28;20028;-67
2021/05/04 07:41:54;;;;;;;2.80;1.17;;;9.20;63.90;;;;;;5085301;28;20069;-66
2021/05/04 07:44:21;;;;;;;2.35;1.08;;;9.20;63.90;;;;;;5087598;28;20031;-66
2021/05/04 07:46:47;;;;;;;4.03;1.45;;;9.00;64.30;;;;;;5087165;28;20384;-66
2021/05/04 07:49:19;;;;;;;9.88;1.23;;;8.60;65.30;;;;;;5087714;28;20040;-66
2021/05/04 07:51:45;;;;;;;6.45;1.00;;;8.40;66.00;;;;;;5087774;28;20024;-67
2021/05/04 07:54:10;;;;;;;22.73;1.50;;;8.20;67.50;;;;;;5087110;28;20647;-66
2021/05/04 07:56:36;;;;;;;8.13;1.17;;;8.10;68.00;;;;;;5070777;28;20499;-66
2021/05/04 07:59:02;;;;;;;3.85;0.85;;;8.00;67.80;;;;;;5063191;28;20029;-66
2021/05/04 08:01:28;;;;;;;1.17;0.73;;;7.70;67.40;;;;;;5053937;28;20049;-67
2021/05/04 08:03:54;;;;;;;3.05;0.80;;;7.80;68.80;;;;;;5053312;28;20028;-67
2021/05/04 08:06:19;;;;;;;3.33;0.90;;;7.60;67.70;;;;;;5052527;28;20480;-67
2021/05/04 08:08:45;;;;;;;15.80;1.80;;;7.60;69.10;;;;;;5052493;28;20087;-66
2021/05/04 08:11:11;;;;;;;5.35;1.08;;;7.80;70.20;;;;;;5053969;28;20056;-67
2021/05/04 08:13:37;;;;;;;5.30;1.00;;;7.80;69.00;;;;;;5053975;28;20406;-67
2021/05/04 08:16:07;;;;;;;5.78;1.10;;;7.70;68.80;;;;;;5053780;28;20676;-68
2021/05/04 08:18:33;;;;;;;1.13;0.90;;;7.60;69.90;;;;;;5053855;28;20649;-68
2021/05/04 08:20:59;;;;;;;2.10;1.15;;;7.60;70.90;;;;;;5053741;28;20461;-68
2021/05/04 08:23:25;;;;;;;2.15;0.98;;;7.50;71.90;;;;;;5053918;28;20087;-67
2021/05/04 08:25:52;;;;;;;0.98;0.60;;;7.50;73.20;;;;;;5053560;28;20066;-68
2021/05/04 08:28:18;;;;;;;2.10;0.93;;;7.40;73.90;;;;;;5053533;28;20538;-69
2021/05/04 08:30:44;;;;;;;12.30;1.30;;;7.40;74.50;;;;;;5062346;28;20059;-71
2021/05/04 08:33:10;;;;;;;2.15;0.88;;;7.40;75.60;;;;;;5074657;28;20056;-71
2021/05/04 08:35:36;;;;;;;0.95;0.73;;;7.40;75.60;;;;;;5073692;28;20524;-70
2021/05/04 08:38:02;;;;;;;1.67;1.00;;;7.40;75.40;;;;;;5073141;28;20498;-70
2021/05/04 08:40:28;;;;;;;5.78;0.85;;;7.40;75.80;;;;;;5067851;28;20551;-70
2021/05/04 08:42:54;;;;;;;3.58;0.98;;;7.50;77.10;;;;;;5064151;28;20029;-69
2021/05/04 08:45:21;;;;;;;49.35;1.92;;;7.50;76.30;;;;;;5060745;28;20052;-70
2021/05/04 08:47:49;;;;;;;5.75;0.90;;;7.40;76.80;;;;;;5058313;28;20033;-71
2021/05/04 08:50:17;;;;;;;6.85;1.33;;;7.30;77.40;;;;;;5061809;28;20502;-72
2021/05/04 08:52:42;;;;;;;3.13;0.95;;;7.40;77.80;;;;;;5061603;28;20051;-72
2021/05/04 08:55:10;;;;;;;2.50;1.10;;;7.30;77.00;;;;;;5062176;28;20032;-72
2021/05/04 08:57:37;;;;;;;2.97;0.70;;;7.10;77.80;;;;;;5062677;28;20025;-72
2021/05/04 09:00:13;;;;;;;1.63;0.95;;;7.10;77.40;;;;;;5053164;28;20029;-72
2021/05/04 09:03:08;;;;;;;5.65;0.95;;;7.10;77.30;;;;;;5053102;28;20060;-71
2021/05/04 09:06:01;;;;;;;36.92;1.77;;;7.20;78.80;;;;;;5053297;28;20025;-71
2021/05/04 09:11:21;;;;;;;1.80;1.10;;;7.10;78.70;;;;;;5057649;28;20033;-71
2021/05/04 09:14:16;;;;;;;2.13;0.95;;;7.00;79.40;;;;;;5058253;28;20123;-71
2021/05/04 09:19:20;;;;;;;5.32;0.90;;;6.90;80.10;;;;;;5072479;28;20020;-72
2021/05/04 09:21:46;;;;;;;1.70;0.80;;;6.90;79.60;;;;;;5072471;28;20543;-71
2021/05/04 09:24:18;;;;;;;2.45;1.20;;;7.00;79.90;;;;;;5063031;28;20124;-68
2021/05/04 09:26:44;;;;;;;12.20;1.30;;;7.00;81.40;;;;;;5052686;28;20025;-70
2021/05/04 09:29:11;;;;;;;2.95;0.82;;;6.80;80.90;;;;;;5052870;28;20032;-71
2021/05/04 09:31:41;;;;;;;2.67;1.00;;;6.90;82.90;;;;;;5052880;28;20108;-72
2021/05/04 09:34:15;;;;;;;4.18;0.90;;;6.90;83.00;;;;;;5052943;28;20091;-71
2021/05/04 09:36:51;;;;;;;4.55;0.90;;;6.90;83.90;;;;;;5052514;28;20614;-71
2021/05/04 09:39:28;;;;;;;1.38;1.02;;;6.90;84.70;;;;;;5052970;28;20029;-71
2021/05/04 09:41:57;;;;;;;4.75;0.80;;;6.90;82.80;;;;;;5054340;28;20020;-71
2021/05/04 09:44:40;;;;;;;3.53;0.90;;;6.90;82.30;;;;;;5069975;28;20020;-72
2021/05/04 09:47:07;;;;;;;1.25;0.80;;;6.80;83.10;;;;;;5054876;28;20024;-71
2021/05/04 09:49:38;;;;;;;2.28;1.10;;;6.70;82.60;;;;;;5052221;28;20052;-71
2021/05/04 09:52:36;;;;;;;8.55;1.10;;;6.70;83.80;;;;;;5057604;28;20589;-71
2021/05/04 09:55:08;;;;;;;2.97;0.80;;;6.70;85.10;;;;;;5070645;28;20093;-72
2021/05/04 09:57:38;;;;;;;8.52;1.10;;;6.50;84.30;;;;;;5066431;28;20052;-71
2021/05/04 10:00:11;;;;;;;15.10;1.80;;;6.50;87.70;;;;;;5065276;28;20039;-71
2021/05/04 10:02:37;;;;;;;2.10;1.10;;;6.30;86.70;;;;;;5071343;28;20044;-68
2021/05/04 10:05:05;;;;;;;9.18;1.25;;;6.40;87.70;;;;;;5069254;28;20491;-68
2021/05/04 10:07:32;;;;;;;6.35;1.75;;;6.30;87.20;;;;;;5071701;28;20028;-68
2021/05/04 10:10:02;;;;;;;16.20;1.38;;;6.40;87.90;;;;;;5071677;28;20145;-68
2021/05/04 10:12:29;;;;;;;1.83;0.85;;;6.40;87.00;;;;;;5059099;28;20024;-68
2021/05/04 10:15:07;;;;;;;4.22;1.05;;;6.50;88.50;;;;;;5061017;28;20038;-68
2021/05/04 10:17:34;;;;;;;5.93;1.25;;;6.40;85.80;;;;;;5055442;28;20068;-69
2021/05/04 10:20:18;;;;;;;4.82;1.00;;;6.30;87.60;;;;;;5051432;28;20082;-69
2021/05/04 10:22:45;;;;;;;2.95;0.95;;;6.40;87.20;;;;;;5050876;28;20025;-69
2021/05/04 10:25:14;;;;;;;3.95;0.93;;;6.30;85.50;;;;;;5061106;28;20016;-69
2021/05/04 10:27:43;;;;;;;4.65;0.85;;;6.20;86.30;;;;;;5054934;28;20036;-69
2021/05/04 10:30:09;;;;;;;6.80;1.20;;;6.20;88.60;;;;;;5057526;28;20075;-71
2021/05/04 10:32:53;;;;;;;9.80;1.38;;;6.20;88.10;;;;;;5070206;28;20024;-71
2021/05/04 10:35:47;;;;;;;72.40;4.13;;;6.20;89.20;;;;;;5065249;28;20024;-71
2021/05/04 10:38:16;;;;;;;1.60;0.80;;;6.30;88.50;;;;;;5058783;28;20535;-71
2021/05/04 10:40:46;;;;;;;0.80;0.80;;;6.30;85.80;;;;;;5057311;28;20017;-71
2021/05/04 10:43:21;;;;;;;;;;;6.20;86.10;;;;;;5065427;28;20040;-69
2021/05/04 10:45:47;;;;;;;6.35;1.10;;;6.10;87.70;;;;;;5056336;28;19915;-69
2021/05/04 10:48:13;;;;;;;26.45;1.38;;;6.00;85.70;;;;;;5055494;28;20048;-77
2021/05/04 10:50:51;;;;;;;1.60;1.00;;;6.30;94.20;;;;;;5071764;28;20476;-71
2021/05/04 10:53:18;;;;;;;24.23;1.88;;;6.60;87.70;;;;;;5071601;28;20029;-71
2021/05/04 10:55:52;;;;;;;76.10;4.18;;;6.60;82.80;;;;;;5071368;28;20021;-71
2021/05/04 10:58:22;;;;;;;5.22;1.00;;;6.60;82.20;;;;;;5071402;28;20357;-72
2021/05/04 11:01:01;;;;;;;14.27;1.40;;;6.70;83.50;;;;;;5071207;28;20041;-71
2021/05/04 11:03:30;;;;;;;21.63;1.87;;;6.60;85.90;;;;;;5070347;28;20529;-72
2021/05/04 11:06:07;;;;;;;5.13;0.90;;;6.40;84.70;;;;;;5071344;28;20764;-71
2021/05/04 11:08:47;;;;;;;8.23;1.33;;;6.30;86.70;;;;;;5071544;28;20040;-71
2021/05/04 11:13:59;;;;;;;3.55;1.20;;;6.10;87.10;;;;;;5071242;28;20059;-71
2021/05/04 11:16:42;;;;;;;4.43;1.10;;;6.20;85.40;;;;;;5062296;28;20021;-71
2021/05/04 11:19:19;;;;;;;9.00;1.65;;;6.30;82.30;;;;;;5051273;28;20032;-71
2021/05/04 11:21:47;;;;;;;1.80;1.00;;;6.20;81.90;;;;;;5053864;28;20044;-71
2021/05/04 11:24:14;;;;;;;21.00;1.65;;;6.20;85.90;;;;;;5065991;28;20074;-71
2021/05/04 11:26:52;;;;;;;11.30;1.42;;;6.20;83.30;;;;;;5071281;28;20028;-72
2021/05/04 11:29:22;;;;;;;12.70;1.60;;;6.10;82.80;;;;;;5060199;28;20029;-72
2021/05/04 11:31:49;;;;;;;;;;;6.00;84.50;;;;;;5065312;28;20025;-72
2021/05/04 11:34:40;;;;;;;1.20;0.82;;;6.00;90.20;;;;;;5072188;28;19987;-72
2021/05/04 11:37:10;;;;;;;3.20;1.23;;;6.10;87.50;;;;;;5074700;28;20056;-72
2021/05/04 11:39:38;;;;;;;6.70;1.00;;;6.20;84.30;;;;;;5074467;28;20024;-72
2021/05/04 11:42:03;;;;;;;3.42;1.05;;;6.30;85.70;;;;;;5074569;28;20024;-72
2021/05/04 11:44:31;;;;;;;5.47;1.33;;;6.30;82.40;;;;;;5074915;28;20024;-70
2021/05/04 11:47:21;;;;;;;4.32;0.93;;;6.30;84.50;;;;;;5074583;28;20033;-70
2021/05/04 11:49:48;;;;;;;5.65;1.00;;;6.30;85.20;;;;;;5074566;28;20036;-71
2021/05/04 11:52:16;;;;;;;2.53;1.30;;;6.40;84.40;;;;;;5074552;28;20074;-70
2021/05/04 11:54:46;;;;;;;1.83;1.13;;;6.40;82.60;;;;;;5074888;28;20390;-71
2021/05/04 11:57:13;;;;;;;8.52;1.30;;;6.40;83.80;;;;;;5072576;28;20487;-69
2021/05/04 11:59:39;;;;;;;5.80;1.33;;;6.50;85.20;;;;;;5054562;28;20029;-69
2021/05/04 12:02:05;;;;;;;5.22;1.02;;;6.50;82.90;;;;;;5054019;28;20053;-67
2021/05/04 12:04:49;;;;;;;1.42;1.00;;;6.40;83.50;;;;;;5054473;28;20388;-67
2021/05/04 12:07:35;;;;;;;15.48;1.40;;;6.40;84.90;;;;;;5054275;28;20108;-67
2021/05/04 12:10:03;;;;;;;4.35;1.08;;;6.40;83.90;;;;;;5065910;28;20056;-67
2021/05/04 12:12:42;;;;;;;1.20;1.00;;;6.50;83.10;;;;;;5073828;28;20495;-67
2021/05/04 12:15:09;;;;;;;1.92;0.93;;;6.50;82.70;;;;;;5073337;28;20503;-67
2021/05/04 12:17:35;;;;;;;1.70;0.80;;;6.40;82.30;;;;;;5074141;28;20036;-67
2021/05/04 12:20:09;;;;;;;5.05;1.02;;;6.40;84.80;;;;;;5074064;28;20024;-67
2021/05/04 12:22:49;;;;;;;6.25;1.17;;;6.50;82.90;;;;;;5074422;28;20492;-67
2021/05/04 12:25:17;;;;;;;2.95;1.30;;;6.40;82.80;;;;;;5074277;28;20034;-67
2021/05/04 12:27:44;;;;;;;1.60;0.80;;;6.50;82.30;;;;;;5074440;28;20090;-68
2021/05/04 12:30:13;;;;;;;3.85;1.05;;;6.50;81.80;;;;;;5074312;28;20070;-67
2021/05/04 12:32:39;;;;;;;1.08;0.80;;;6.50;82.20;;;;;;5074349;28;20063;-67
2021/05/04 12:35:28;;;;;;;1.15;0.90;;;6.50;81.00;;;;;;5074115;28;20130;-68
2021/05/04 12:38:19;;;;;;;3.50;1.10;;;6.50;80.80;;;;;;5070753;28;20112;-68
2021/05/04 12:44:27;;;;;;;4.15;1.17;;;6.50;81.60;;;;;;5047455;28;19916;-68
2021/05/04 12:46:54;;;;;;;3.33;0.80;;;6.50;79.40;;;;;;5053223;28;20037;-67
2021/05/04 12:49:33;;;;;;;2.15;1.05;;;6.50;77.60;;;;;;5053541;28;20033;-67
2021/05/04 12:51:58;;;;;;;23.08;2.65;;;6.50;78.40;;;;;;5053441;28;20464;-67
2021/05/04 12:54:24;;;;;;;8.18;1.10;;;6.50;78.50;;;;;;5053633;28;20063;-67
2021/05/04 12:56:57;;;;;;;6.07;1.02;;;6.60;78.70;;;;;;5053378;28;20029;-67
2021/05/04 12:59:29;;;;;;;41.00;2.78;;;6.60;76.60;;;;;;5053686;28;20025;-67
2021/05/04 13:02:02;;;;;;;5.97;1.27;;;6.60;74.20;;;;;;5053148;28;20053;-68
2021/05/04 13:04:45;;;;;;;8.48;1.00;;;6.60;73.60;;;;;;5065091;28;20043;-68
2021/05/04 13:07:46;;;;;;;11.88;1.02;;;6.50;73.40;;;;;;5073170;28;20025;-68
2021/05/04 13:10:32;;;;;;;5.15;1.20;;;6.60;73.60;;;;;;5072728;28;20086;-68
2021/05/04 13:32:09;;;;;;;0.80;0.68;;;6.70;68.00;;;;;;5052832;28;20043;-68
2021/05/04 13:34:39;;;;;;;4.05;0.70;;;6.80;67.80;;;;;;5052653;28;20473;-68
2021/05/04 13:37:08;;;;;;;6.00;1.23;;;6.80;67.50;;;;;;5052599;28;20108;-68
2021/05/04 13:47:34;;;;;;;4.85;0.90;;;6.60;65.70;;;;;;5052735;28;20114;-68
2021/05/04 13:50:04;;;;;;;4.95;0.98;;;6.70;67.10;;;;;;5052382;28;20025;-67
2021/05/04 13:52:30;;;;;;;7.90;1.10;;;6.70;66.70;;;;;;5052292;28;20036;-68
2021/05/04 13:54:55;;;;;;;2.20;0.90;;;6.80;66.40;;;;;;5052101;28;20021;-68
2021/05/04 13:57:21;;;;;;;5.13;0.80;;;6.80;65.40;;;;;;5052107;28;20032;-68
2021/05/04 13:59:49;;;;;;;4.25;1.08;;;6.80;64.60;;;;;;5060486;28;20017;-69
2021/05/04 14:02:27;;;;;;;0.95;0.70;;;6.90;64.80;;;;;;5071656;28;20549;-69
2021/05/04 14:26:38;;;;;;;2.88;0.65;;;7.00;59.60;;;;;;5051935;28;20061;-71
2021/05/04 14:29:05;;;;;;;2.30;0.63;;;6.90;58.90;;;;;;5051463;28;20369;-71
2021/05/04 14:31:31;;;;;;;0.60;0.60;;;6.90;58.80;;;;;;5051675;28;20021;-73
2021/05/04 14:33:56;;;;;;;3.08;1.10;;;6.90;58.40;;;;;;5051482;28;20025;-71
2021/05/04 14:42:06;;;;;;;1.15;0.60;;;6.90;58.30;;;;;;5051707;28;20108;-71
2021/05/04 14:44:58;;;;;;;1.48;0.82;;;6.90;57.90;;;;;;5051567;28;20096;-71
2021/05/04 15:03:39;;;;;;;5.13;0.75;;;7.10;57.50;;;;;;5053307;28;20510;-69
2021/05/04 15:06:05;;;;;;;1.17;0.55;;;7.00;57.40;;;;;;5071256;28;20108;-70
2021/05/04 15:08:32;;;;;;;3.28;0.70;;;7.00;57.40;;;;;;5071051;28;20077;-70
2021/05/04 15:10:59;;;;;;;6.25;0.73;;;7.00;57.30;;;;;;5074887;28;20103;-70
2021/05/04 15:13:24;;;;;;;1.77;0.60;;;7.00;57.60;;;;;;5075249;28;20029;-70
2021/05/04 15:23:44;;;;;;;4.45;0.73;;;7.10;57.10;;;;;;5075039;28;20021;-69
2021/05/04 15:26:10;;;;;;;3.80;0.70;;;7.00;56.60;;;;;;5074278;28;20526;-70
2021/05/04 15:28:36;;;;;;;1.77;0.60;;;6.90;56.80;;;;;;5073857;28;20115;-70
2021/05/04 15:31:02;;;;;;;4.10;1.23;;;6.90;57.00;;;;;;5070194;28;20028;-70
2021/05/04 15:33:31;;;;;;;1.10;0.65;;;6.90;56.30;;;;;;5074222;28;20445;-73
2021/05/04 15:35:57;;;;;;;1.33;0.50;;;6.90;57.40;;;;;;5074299;28;20028;-71
2021/05/04 15:38:23;;;;;;;1.85;1.20;;;7.10;60.50;;;;;;5074832;28;20540;-71
2021/05/04 15:40:48;;;;;;;3.35;0.70;;;7.20;57.70;;;;;;5073476;28;20077;-71
2021/05/04 15:43:15;;;;;;;5.32;0.88;;;7.20;57.10;;;;;;5074562;28;20745;-71
2021/05/04 15:48:38;;;;;;;4.93;0.70;;;6.90;56.90;;;;;;5062955;28;20051;-71
2021/05/04 15:56:15;;;;;;;0.85;0.60;;;6.90;56.90;;;;;;5074458;28;20059;-71
2021/05/04 16:07:09;;;;;;;9.80;0.80;;;6.80;57.30;;;;;;5054259;28;20116;-72
2021/05/04 16:09:38;;;;;;;1.33;0.73;;;6.80;57.00;;;;;;5054197;28;20135;-72
2021/05/04 16:12:04;;;;;;;0.60;0.50;;;7.10;59.90;;;;;;5053803;28;20021;-71
2021/05/04 16:14:30;;;;;;;0.95;0.60;;;7.10;56.50;;;;;;5056252;28;20373;-72
2021/05/04 16:16:55;;;;;;;0.93;0.60;;;7.00;56.10;;;;;;5053880;28;20024;-72
2021/05/04 16:19:24;;;;;;;2.58;0.60;;;7.00;56.50;;;;;;5053886;28;20037;-73
2021/05/04 16:21:53;;;;;;;0.60;0.60;;;6.90;56.80;;;;;;5060141;28;20012;-72
2021/05/04 16:32:19;;;;;;;2.25;0.70;;;6.70;57.00;;;;;;5062940;28;20028;-71
2021/05/04 16:34:45;;;;;;;1.05;0.70;;;6.70;56.70;;;;;;5062863;28;20017;-72
2021/05/04 16:37:11;;;;;;;0.82;0.75;;;6.60;57.20;;;;;;5063123;28;20017;-71
2021/05/04 16:39:37;;;;;;;2.35;0.77;;;6.60;56.90;;;;;;5063075;28;20039;-71
2021/05/04 16:42:03;;;;;;;1.38;0.70;;;6.60;57.30;;;;;;5062568;28;20016;-71
2021/05/04 16:44:28;;;;;;;1.13;0.80;;;6.60;57.50;;;;;;5064289;28;20024;-70
2021/05/04 16:49:21;;;;;;;0.68;0.60;;;6.50;57.70;;;;;;5063154;28;20384;-71
2021/05/04 16:51:47;;;;;;;0.70;0.55;;;6.50;58.00;;;;;;5062438;28;20021;-71
2021/05/04 16:54:13;;;;;;;4.40;0.63;;;6.50;58.30;;;;;;5062000;28;20025;-71
2021/05/04 16:56:39;;;;;;;1.95;0.60;;;6.50;58.00;;;;;;5063026;28;20092;-70
2021/05/04 16:59:05;;;;;;;1.40;0.75;;;6.40;58.30;;;;;;5069252;28;20111;-71
2021/05/04 17:01:31;;;;;;;1.02;0.65;;;6.40;58.10;;;;;;5072937;28;20086;-70
2021/05/04 17:03:57;;;;;;;2.28;0.77;;;6.40;58.10;;;;;;5070286;28;20066;-71
2021/05/04 17:09:08;;;;;;;2.30;0.75;;;6.40;57.40;;;;;;5058365;28;20055;-69
2021/05/04 17:11:35;;;;;;;0.95;0.70;;;6.40;57.70;;;;;;5058166;28;20028;-70
2021/05/04 17:14:01;;;;;;;1.35;0.70;;;6.40;58.00;;;;;;5068339;28;20045;-70
2021/05/04 17:16:27;;;;;;;2.53;0.68;;;6.40;57.50;;;;;;5056458;28;20068;-70
2021/05/04 17:18:52;;;;;;;1.15;0.63;;;6.40;57.80;;;;;;5064233;28;20029;-69
2021/05/04 17:21:18;;;;;;;1.30;0.80;;;6.30;58.10;;;;;;5063892;28;20021;-70
2021/05/04 17:23:44;;;;;;;1.17;0.63;;;6.30;58.60;;;;;;5056215;28;20025;-71
2021/05/04 17:26:10;;;;;;;1.80;0.80;;;6.30;58.50;;;;;;5052690;28;20399;-70
2021/05/04 17:28:35;;;;;;;0.93;0.80;;;6.30;59.00;;;;;;5052637;28;20039;-70
2021/05/04 17:31:01;;;;;;;0.55;0.55;;;6.30;59.20;;;;;;5062534;28;20392;-70
2021/05/04 17:33:27;;;;;;;0.95;0.50;;;6.20;59.40;;;;;;5060108;28;20025;-70
2021/05/04 17:35:56;;;;;;;1.13;0.60;;;6.20;59.50;;;;;;5061597;28;20032;-68
2021/05/04 17:38:24;;;;;;;0.70;0.70;;;6.20;59.70;;;;;;5061093;28;20036;-69
2021/05/04 17:40:49;;;;;;;1.48;0.70;;;6.10;59.40;;;;;;5069883;28;20030;-69
2021/05/04 17:43:15;;;;;;;2.35;0.80;;;6.10;59.80;;;;;;5072465;28;20055;-70
2021/05/04 17:45:41;;;;;;;1.23;0.70;;;6.10;59.70;;;;;;5072706;28;20036;-69
2021/05/04 17:48:07;;;;;;;1.17;0.70;;;6.10;60.00;;;;;;5072142;28;20462;-70
2021/05/04 17:50:33;;;;;;;2.03;0.88;;;6.00;60.10;;;;;;5071502;28;20039;-70
2021/05/04 17:52:59;;;;;;;2.58;0.90;;;6.00;60.00;;;;;;5072070;28;20024;-70
2021/05/04 17:55:25;;;;;;;4.28;1.02;;;6.00;60.00;;;;;;5072068;28;20025;-70
2021/05/04 17:57:51;;;;;;;1.67;0.82;;;6.00;60.30;;;;;;5072156;28;20471;-70
2021/05/04 18:00:17;;;;;;;2.95;1.08;;;6.00;60.60;;;;;;5070381;28;20048;-70
2021/05/04 18:02:43;;;;;;;1.52;0.70;;;5.90;60.80;;;;;;5068867;28;20127;-70
2021/05/04 18:05:12;;;;;;;0.65;0.65;;;5.90;61.50;;;;;;5072118;28;20113;-69
2021/05/04 18:07:39;;;;;;;3.22;0.70;;;5.90;61.80;;;;;;5072199;28;20037;-70
2021/05/04 18:10:08;;;;;;;1.35;0.80;;;5.90;62.30;;;;;;5071745;28;20150;-70
2021/05/04 18:12:53;;;;;;;2.13;1.00;;;5.90;62.80;;;;;;5071946;28;20028;-70
2021/05/04 18:23:02;;;;;;;1.17;0.68;;;5.70;63.70;;;;;;5071933;28;20580;-70
2021/05/04 18:25:33;;;;;;;0.60;0.60;;;5.70;63.80;;;;;;5071762;28;20064;-69
2021/05/04 18:28:03;;;;;;;1.02;0.85;;;5.70;65.00;;;;;;5069095;28;20114;-70
2021/05/04 18:30:30;;;;;;;;;;;5.60;64.70;;;;;;5065656;28;20056;-70
2021/05/04 18:32:56;;;;;;;1.13;0.70;;;5.50;65.50;;;;;;5059316;28;20260;-70
2021/05/04 18:35:25;;;;;;;1.83;0.73;;;5.40;65.70;;;;;;5060883;28;20073;-70
2021/05/04 19:54:58;;;;;;;3.20;0.85;;;4.80;74.50;;;;;;5064514;28;20032;-70
2021/05/04 20:12:23;;;;;;;1.45;0.75;;;4.60;77.00;;;;;;5073804;28;19993;-69
2021/05/04 20:14:53;;;;;;;1.00;0.85;;;4.60;76.50;;;;;;5073727;28;20029;-70
2021/05/04 20:17:20;;;;;;;2.85;0.98;;;4.60;76.40;;;;;;5062156;28;20040;-69
2021/05/04 20:19:45;;;;;;;1.23;0.80;;;4.60;76.70;;;;;;5059556;28;20426;-70
2021/05/04 20:22:11;;;;;;;1.05;0.93;;;4.60;76.80;;;;;;5073489;28;20029;-70
2021/05/04 20:24:37;;;;;;;2.00;0.80;;;4.60;76.90;;;;;;5059355;28;20016;-70
2021/05/04 20:27:03;;;;;;;1.92;0.80;;;4.50;77.00;;;;;;5073704;28;20021;-70
2021/05/04 20:29:29;;;;;;;1.30;0.90;;;4.50;77.70;;;;;;5073350;28;20522;-69
2021/05/04 20:31:56;;;;;;;2.88;0.90;;;4.50;77.90;;;;;;5073292;28;20025;-69
2021/05/04 20:34:24;;;;;;;0.80;0.80;;;4.50;78.40;;;;;;5073344;28;20032;-69
2021/05/04 20:36:51;;;;;;;1.48;0.90;;;4.50;78.90;;;;;;5067232;28;20017;-69
2021/05/04 20:39:17;;;;;;;2.03;0.93;;;4.50;78.70;;;;;;5053209;28;20071;-69
2021/05/04 20:41:43;;;;;;;3.70;0.75;;;4.50;79.30;;;;;;5070215;28;20040;-69
2021/05/04 20:44:09;;;;;;;1.15;1.00;;;4.50;79.80;;;;;;5070879;28;20091;-69
2021/05/04 20:46:45;;;;;;;3.33;1.10;;;4.50;80.10;;;;;;5073113;28;20077;-69
2021/05/04 20:49:17;;;;;;;0.73;0.73;;;4.50;80.40;;;;;;5073388;28;20064;-69
2021/05/04 20:51:43;;;;;;;1.95;0.80;;;4.50;80.50;;;;;;5068612;28;20012;-69
2021/05/04 20:54:10;;;;;;;3.03;1.00;;;4.50;80.80;;;;;;5073326;28;20476;-69
2021/05/04 20:56:36;;;;;;;1.00;0.90;;;4.50;81.40;;;;;;5073103;28;20038;-69
2021/05/04 20:59:02;;;;;;;2.63;1.00;;;4.50;82.10;;;;;;5073002;28;20023;-69
2021/05/04 21:01:28;;;;;;;0.98;0.80;;;4.50;82.60;;;;;;5068755;28;20083;-69
2021/05/04 21:03:55;;;;;;;1.88;0.70;;;4.40;83.40;;;;;;5072919;28;20028;-69
2021/05/04 21:06:21;;;;;;;0.77;0.75;;;4.40;84.50;;;;;;5053367;28;20033;-69
2021/05/04 21:08:49;;;;;;;1.67;0.90;;;4.40;84.80;;;;;;5053965;28;20032;-69
2021/05/04 21:13:46;;;;;;;2.53;0.82;;;4.30;86.30;;;;;;5072966;28;20027;-68
2021/05/04 21:16:12;;;;;;;2.95;1.65;;;4.30;87.00;;;;;;5065623;28;20028;-69
2021/05/04 21:18:40;;;;;;;4.38;1.00;;;4.30;88.00;;;;;;5072158;28;20024;-69
2021/05/04 21:21:17;;;;;;;1.08;0.70;;;4.50;92.70;;;;;;5062311;28;20421;-69
2021/05/04 21:24:00;;;;;;;1.67;1.10;;;5.10;99.90;;;;;;5066444;28;20028;-69
2021/05/04 21:28:58;;;;;;;2.60;1.15;;;4.90;88.80;;;;;;5052257;28;20044;-70
2021/05/04 21:31:24;;;;;;;3.13;1.00;;;4.70;90.30;;;;;;5052532;28;20385;-71
2021/05/04 21:33:49;;;;;;;6.07;1.20;;;4.60;90.60;;;;;;5068084;28;20021;-71
2021/05/04 21:36:15;;;;;;;1.75;0.90;;;4.50;91.50;;;;;;5072411;28;20028;-71
2021/05/04 21:38:42;;;;;;;1.10;1.00;;;4.40;92.00;;;;;;5072416;28;20052;-70
2021/05/04 21:41:08;;;;;;;1.23;0.80;;;4.30;92.70;;;;;;5066530;28;20032;-69
2021/05/04 21:43:34;;;;;;;2.50;0.93;;;4.30;93.10;;;;;;5064154;28;20451;-69
2021/05/04 21:45:59;;;;;;;3.17;1.20;;;4.30;93.60;;;;;;5072281;28;20044;-69
2021/05/04 21:48:25;;;;;;;1.10;0.88;;;4.30;93.30;;;;;;5060275;28;20037;-69
2021/05/04 21:50:51;;;;;;;1.67;0.90;;;4.30;93.10;;;;;;5055265;28;20028;-69
2021/05/04 21:53:17;;;;;;;1.88;0.88;;;4.20;93.20;;;;;;5053530;28;20500;-69
2021/05/04 21:55:43;;;;;;;1.60;0.93;;;4.10;93.20;;;;;;5053606;28;20444;-69
2021/05/04 21:58:09;;;;;;;1.45;0.88;;;4.20;92.70;;;;;;5053155;28;20066;-69
2021/05/04 22:00:44;;;;;;;5.03;1.17;;;4.20;92.00;;;;;;5052210;28;20037;-70
2021/05/04 22:03:12;;;;;;;2.28;1.10;;;4.20;91.60;;;;;;5051342;28;20565;-70